sensor_id;sensor_type;location;lat;lon;timestamp;temperature;humidity
65072;DHT22;51663;52.310;17.016;2024-03-06T00:00:21;26.50;25.50
65072;DHT22;51663;52.310;17.016;2024-03-06T00:03:45;26.40;25.70
65072;DHT22;51663;52.310;17.016;2024-03-06T00:06:50;26.40;25.70
65072;DHT22;51663;52.310;17.016;2024-03-06T00:09:56;26.40;25.70
65072;DHT22;51663;52.310;17.016;2024-03-06T00:12:58;26.40;25.50
65072;DHT22;51663;52.310;17.016;2024-03-06T00:16:01;26.30;25.60
65072;DHT22;51663;52.310;17.016;2024-03-06T00:19:03;26.30;25.80
65072;DHT22;51663;52.310;17.016;2024-03-06T00:22:06;26.30;25.70
65072;DHT22;51663;52.310;17.016;2024-03-06T00:25:08;26.30;25.30
65072;DHT22;51663;52.310;17.016;2024-03-06T00:28:11;26.40;25.40
65072;DHT22;51663;52.310;17.016;2024-03-06T00:31:13;26.30;25.40
65072;DHT22;51663;52.310;17.016;2024-03-06T00:34:16;26.30;25.50
65072;DHT22;51663;52.310;17.016;2024-03-06T00:37:18;26.30;25.30
65072;DHT22;51663;52.310;17.016;2024-03-06T00:40:20;26.30;25.20
65072;DHT22;51663;52.310;17.016;2024-03-06T00:43:23;26.20;25.30
65072;DHT22;51663;52.310;17.016;2024-03-06T00:46:25;26.20;25.40
65072;DHT22;51663;52.310;17.016;2024-03-06T00:49:28;26.20;25.40
65072;DHT22;51663;52.310;17.016;2024-03-06T00:52:30;26.20;25.40
65072;DHT22;51663;52.310;17.016;2024-03-06T00:55:32;26.20;25.30
65072;DHT22;51663;52.310;17.016;2024-03-06T00:58:35;26.20;25.30
65072;DHT22;51663;52.310;17.016;2024-03-06T01:01:38;26.20;25.20
65072;DHT22;51663;52.310;17.016;2024-03-06T01:04:41;26.10;25.10
65072;DHT22;51663;52.310;17.016;2024-03-06T01:07:43;26.10;25.10
65072;DHT22;51663;52.310;17.016;2024-03-06T01:10:45;26.00;25.90
65072;DHT22;51663;52.310;17.016;2024-03-06T01:13:48;26.00;25.30
65072;DHT22;51663;52.310;17.016;2024-03-06T01:16:51;26.00;25.50
65072;DHT22;51663;52.310;17.016;2024-03-06T01:19:54;26.10;25.20
65072;DHT22;51663;52.310;17.016;2024-03-06T01:22:56;26.10;25.10
65072;DHT22;51663;52.310;17.016;2024-03-06T01:25:59;26.10;25.10
65072;DHT22;51663;52.310;17.016;2024-03-06T01:29:02;26.10;25.40
65072;DHT22;51663;52.310;17.016;2024-03-06T01:32:04;26.10;25.50
65072;DHT22;51663;52.310;17.016;2024-03-06T01:35:08;26.20;25.60
65072;DHT22;51663;52.310;17.016;2024-03-06T01:38:10;26.40;25.40
65072;DHT22;51663;52.310;17.016;2024-03-06T01:41:14;26.40;25.40
65072;DHT22;51663;52.310;17.016;2024-03-06T01:44:18;26.40;25.40
65072;DHT22;51663;52.310;17.016;2024-03-06T01:47:20;26.50;25.40
65072;DHT22;51663;52.310;17.016;2024-03-06T01:50:23;26.60;25.60
65072;DHT22;51663;52.310;17.016;2024-03-06T01:53:28;26.60;25.60
65072;DHT22;51663;52.310;17.016;2024-03-06T01:56:36;26.60;25.70
65072;DHT22;51663;52.310;17.016;2024-03-06T01:59:40;26.70;25.70
65072;DHT22;51663;52.310;17.016;2024-03-06T02:02:43;26.80;25.70
65072;DHT22;51663;52.310;17.016;2024-03-06T02:05:48;26.80;25.70
65072;DHT22;51663;52.310;17.016;2024-03-06T02:08:51;26.90;25.80
65072;DHT22;51663;52.310;17.016;2024-03-06T02:11:54;27.00;25.60
65072;DHT22;51663;52.310;17.016;2024-03-06T02:14:56;27.10;25.60
65072;DHT22;51663;52.310;17.016;2024-03-06T02:17:58;27.10;25.60
65072;DHT22;51663;52.310;17.016;2024-03-06T02:21:00;27.10;25.60
65072;DHT22;51663;52.310;17.016;2024-03-06T02:24:03;27.10;25.60
65072;DHT22;51663;52.310;17.016;2024-03-06T02:27:05;27.10;25.60
65072;DHT22;51663;52.310;17.016;2024-03-06T02:30:08;27.10;25.60
65072;DHT22;51663;52.310;17.016;2024-03-06T02:33:10;27.00;25.60
65072;DHT22;51663;52.310;17.016;2024-03-06T02:36:14;27.00;25.70
65072;DHT22;51663;52.310;17.016;2024-03-06T02:39:16;26.90;25.60
65072;DHT22;51663;52.310;17.016;2024-03-06T02:42:18;26.90;25.50
65072;DHT22;51663;52.310;17.016;2024-03-06T02:45:20;26.90;25.50
65072;DHT22;51663;52.310;17.016;2024-03-06T02:48:23;26.90;25.50
65072;DHT22;51663;52.310;17.016;2024-03-06T02:51:25;26.80;25.50
65072;DHT22;51663;52.310;17.016;2024-03-06T02:54:28;26.80;25.50
65072;DHT22;51663;52.310;17.016;2024-03-06T02:57:30;26.80;25.30
65072;DHT22;51663;52.310;17.016;2024-03-06T03:00:32;26.70;25.30
65072;DHT22;51663;52.310;17.016;2024-03-06T03:03:35;26.70;25.90
65072;DHT22;51663;52.310;17.016;2024-03-06T03:06:38;26.60;25.30
65072;DHT22;51663;52.310;17.016;2024-03-06T03:09:40;26.50;25.30
65072;DHT22;51663;52.310;17.016;2024-03-06T03:12:43;26.50;25.50
65072;DHT22;51663;52.310;17.016;2024-03-06T03:15:46;26.40;25.40
65072;DHT22;51663;52.310;17.016;2024-03-06T03:18:50;26.40;25.40
65072;DHT22;51663;52.310;17.016;2024-03-06T03:21:52;26.40;25.50
65072;DHT22;51663;52.310;17.016;2024-03-06T03:24:55;26.40;25.50
65072;DHT22;51663;52.310;17.016;2024-03-06T03:27:59;26.40;25.50
65072;DHT22;51663;52.310;17.016;2024-03-06T03:31:01;26.30;25.50
65072;DHT22;51663;52.310;17.016;2024-03-06T03:34:07;26.30;25.50
65072;DHT22;51663;52.310;17.016;2024-03-06T03:37:13;26.30;25.40
65072;DHT22;51663;52.310;17.016;2024-03-06T03:40:15;26.30;25.40
65072;DHT22;51663;52.310;17.016;2024-03-06T03:43:18;26.30;25.40
65072;DHT22;51663;52.310;17.016;2024-03-06T03:46:21;26.30;25.20
65072;DHT22;51663;52.310;17.016;2024-03-06T03:49:23;26.10;25.10
65072;DHT22;51663;52.310;17.016;2024-03-06T03:52:26;26.10;25.20
65072;DHT22;51663;52.310;17.016;2024-03-06T03:55:28;26.00;25.20
65072;DHT22;51663;52.310;17.016;2024-03-06T03:58:30;25.80;25.50
65072;DHT22;51663;52.310;17.016;2024-03-06T04:01:33;25.70;25.70
65072;DHT22;51663;52.310;17.016;2024-03-06T04:04:35;25.60;25.80
65072;DHT22;51663;52.310;17.016;2024-03-06T04:07:38;25.80;25.90
65072;DHT22;51663;52.310;17.016;2024-03-06T04:10:42;25.90;25.40
65072;DHT22;51663;52.310;17.016;2024-03-06T04:13:47;25.90;25.20
65072;DHT22;51663;52.310;17.016;2024-03-06T04:16:50;25.90;25.00
65072;DHT22;51663;52.310;17.016;2024-03-06T04:19:53;25.90;24.90
65072;DHT22;51663;52.310;17.016;2024-03-06T04:22:57;26.00;24.80
65072;DHT22;51663;52.310;17.016;2024-03-06T04:26:00;26.00;24.80
65072;DHT22;51663;52.310;17.016;2024-03-06T04:29:03;25.80;24.80
65072;DHT22;51663;52.310;17.016;2024-03-06T04:32:05;25.80;25.10
65072;DHT22;51663;52.310;17.016;2024-03-06T04:35:08;25.80;25.10
65072;DHT22;51663;52.310;17.016;2024-03-06T04:38:14;25.90;25.00
65072;DHT22;51663;52.310;17.016;2024-03-06T04:41:18;26.00;24.90
65072;DHT22;51663;52.310;17.016;2024-03-06T04:44:21;25.80;25.00
65072;DHT22;51663;52.310;17.016;2024-03-06T04:47:24;25.60;25.10
65072;DHT22;51663;52.310;17.016;2024-03-06T04:50:31;25.60;25.30
65072;DHT22;51663;52.310;17.016;2024-03-06T04:53:33;25.60;25.20
65072;DHT22;51663;52.310;17.016;2024-03-06T04:56:36;25.50;25.20
65072;DHT22;51663;52.310;17.016;2024-03-06T04:59:38;25.60;25.60
65072;DHT22;51663;52.310;17.016;2024-03-06T05:02:41;25.50;25.20
65072;DHT22;51663;52.310;17.016;2024-03-06T05:06:03;25.70;24.90
65072;DHT22;51663;52.310;17.016;2024-03-06T05:09:25;25.70;24.80
65072;DHT22;51663;52.310;17.016;2024-03-06T05:12:44;25.50;24.60
65072;DHT22;51663;52.310;17.016;2024-03-06T05:16:05;25.50;24.80
65072;DHT22;51663;52.310;17.016;2024-03-06T05:19:25;25.50;24.80
65072;DHT22;51663;52.310;17.016;2024-03-06T05:22:54;25.30;25.30
65072;DHT22;51663;52.310;17.016;2024-03-06T05:26:13;25.50;25.10
65072;DHT22;51663;52.310;17.016;2024-03-06T05:29:34;25.40;25.20
65072;DHT22;51663;52.310;17.016;2024-03-06T05:32:55;25.50;25.30
65072;DHT22;51663;52.310;17.016;2024-03-06T05:36:15;25.60;25.00
65072;DHT22;51663;52.310;17.016;2024-03-06T05:39:36;25.70;24.90
65072;DHT22;51663;52.310;17.016;2024-03-06T05:42:59;25.80;24.80
65072;DHT22;51663;52.310;17.016;2024-03-06T05:46:19;25.80;24.90
65072;DHT22;51663;52.310;17.016;2024-03-06T05:49:39;25.80;25.00
65072;DHT22;51663;52.310;17.016;2024-03-06T05:52:58;25.80;24.90
65072;DHT22;51663;52.310;17.016;2024-03-06T05:56:18;25.90;24.90
65072;DHT22;51663;52.310;17.016;2024-03-06T05:59:37;26.00;24.90
65072;DHT22;51663;52.310;17.016;2024-03-06T06:02:42;26.00;25.00
65072;DHT22;51663;52.310;17.016;2024-03-06T06:05:44;26.10;24.90
65072;DHT22;51663;52.310;17.016;2024-03-06T06:08:48;26.20;24.90
65072;DHT22;51663;52.310;17.016;2024-03-06T06:11:50;26.30;24.90
65072;DHT22;51663;52.310;17.016;2024-03-06T06:14:53;26.40;24.90
65072;DHT22;51663;52.310;17.016;2024-03-06T06:17:55;26.30;25.10
65072;DHT22;51663;52.310;17.016;2024-03-06T06:20:58;26.40;25.20
65072;DHT22;51663;52.310;17.016;2024-03-06T06:24:01;26.50;25.10
65072;DHT22;51663;52.310;17.016;2024-03-06T06:27:03;26.50;25.10
65072;DHT22;51663;52.310;17.016;2024-03-06T06:30:07;26.60;25.10
65072;DHT22;51663;52.310;17.016;2024-03-06T06:33:15;26.70;25.80
65072;DHT22;51663;52.310;17.016;2024-03-06T06:36:17;26.80;25.30
65072;DHT22;51663;52.310;17.016;2024-03-06T06:39:20;26.90;25.10
65072;DHT22;51663;52.310;17.016;2024-03-06T06:42:22;27.00;25.20
65072;DHT22;51663;52.310;17.016;2024-03-06T06:45:26;27.00;25.20
65072;DHT22;51663;52.310;17.016;2024-03-06T06:48:28;27.00;25.40
65072;DHT22;51663;52.310;17.016;2024-03-06T06:51:31;27.00;25.40
65072;DHT22;51663;52.310;17.016;2024-03-06T06:54:33;26.90;25.50
65072;DHT22;51663;52.310;17.016;2024-03-06T06:57:36;26.80;25.60
65072;DHT22;51663;52.310;17.016;2024-03-06T07:00:38;27.00;25.60
65072;DHT22;51663;52.310;17.016;2024-03-06T07:03:41;27.10;25.70
65072;DHT22;51663;52.310;17.016;2024-03-06T07:06:43;27.30;25.60
65072;DHT22;51663;52.310;17.016;2024-03-06T07:09:45;27.40;25.70
65072;DHT22;51663;52.310;17.016;2024-03-06T07:12:47;27.00;26.10
65072;DHT22;51663;52.310;17.016;2024-03-06T07:15:50;26.80;26.50
65072;DHT22;51663;52.310;17.016;2024-03-06T07:18:53;27.10;26.50
65072;DHT22;51663;52.310;17.016;2024-03-06T07:21:55;27.30;26.40
65072;DHT22;51663;52.310;17.016;2024-03-06T07:24:58;27.20;26.60
65072;DHT22;51663;52.310;17.016;2024-03-06T07:28:00;27.30;26.50
65072;DHT22;51663;52.310;17.016;2024-03-06T07:31:02;27.50;26.60
65072;DHT22;51663;52.310;17.016;2024-03-06T07:34:07;27.70;26.60
65072;DHT22;51663;52.310;17.016;2024-03-06T07:37:10;27.90;27.20
65072;DHT22;51663;52.310;17.016;2024-03-06T07:40:13;28.00;26.80
65072;DHT22;51663;52.310;17.016;2024-03-06T07:43:15;28.20;27.10
65072;DHT22;51663;52.310;17.016;2024-03-06T07:46:18;28.20;26.90
65072;DHT22;51663;52.310;17.016;2024-03-06T07:49:20;28.30;27.00
65072;DHT22;51663;52.310;17.016;2024-03-06T07:52:24;28.50;27.00
65072;DHT22;51663;52.310;17.016;2024-03-06T07:55:26;28.70;26.90
65072;DHT22;51663;52.310;17.016;2024-03-06T07:58:29;28.80;26.70
65072;DHT22;51663;52.310;17.016;2024-03-06T08:01:31;28.90;26.70
65072;DHT22;51663;52.310;17.016;2024-03-06T08:04:35;29.10;26.70
65072;DHT22;51663;52.310;17.016;2024-03-06T08:07:41;28.80;27.20
65072;DHT22;51663;52.310;17.016;2024-03-06T08:10:44;28.20;27.40
65072;DHT22;51663;52.310;17.016;2024-03-06T08:13:49;28.10;27.90
65072;DHT22;51663;52.310;17.016;2024-03-06T08:16:52;27.20;28.60
65072;DHT22;51663;52.310;17.016;2024-03-06T08:19:54;26.30;29.00
65072;DHT22;51663;52.310;17.016;2024-03-06T08:22:57;25.90;29.50
65072;DHT22;51663;52.310;17.016;2024-03-06T08:25:59;26.30;30.00
65072;DHT22;51663;52.310;17.016;2024-03-06T08:29:02;26.80;29.60
65072;DHT22;51663;52.310;17.016;2024-03-06T08:32:04;25.60;30.10
65072;DHT22;51663;52.310;17.016;2024-03-06T08:35:10;25.80;30.40
65072;DHT22;51663;52.310;17.016;2024-03-06T08:38:15;27.30;29.60
65072;DHT22;51663;52.310;17.016;2024-03-06T08:41:19;27.50;28.90
65072;DHT22;51663;52.310;17.016;2024-03-06T08:44:22;27.50;28.80
65072;DHT22;51663;52.310;17.016;2024-03-06T08:47:24;27.70;29.00
65072;DHT22;51663;52.310;17.016;2024-03-06T08:50:27;27.90;28.80
65072;DHT22;51663;52.310;17.016;2024-03-06T08:53:29;27.00;29.50
65072;DHT22;51663;52.310;17.016;2024-03-06T08:56:32;26.60;29.50
65072;DHT22;51663;52.310;17.016;2024-03-06T08:59:36;26.00;30.80
65072;DHT22;51663;52.310;17.016;2024-03-06T09:02:38;25.90;30.40
65072;DHT22;51663;52.310;17.016;2024-03-06T09:05:43;25.90;31.00
65072;DHT22;51663;52.310;17.016;2024-03-06T09:08:45;24.80;31.80
65072;DHT22;51663;52.310;17.016;2024-03-06T09:11:50;25.90;31.50
65072;DHT22;51663;52.310;17.016;2024-03-06T09:14:53;26.30;30.50
65072;DHT22;51663;52.310;17.016;2024-03-06T09:17:55;26.40;30.50
65072;DHT22;51663;52.310;17.016;2024-03-06T09:20:58;26.60;29.90
65072;DHT22;51663;52.310;17.016;2024-03-06T09:24:00;27.10;29.50
65072;DHT22;51663;52.310;17.016;2024-03-06T09:27:03;27.30;29.90
65072;DHT22;51663;52.310;17.016;2024-03-06T09:30:06;27.50;28.90
65072;DHT22;51663;52.310;17.016;2024-03-06T09:33:12;27.40;29.20
65072;DHT22;51663;52.310;17.016;2024-03-06T09:36:14;27.90;28.80
65072;DHT22;51663;52.310;17.016;2024-03-06T09:39:18;27.80;28.70
65072;DHT22;51663;52.310;17.016;2024-03-06T09:42:25;27.30;28.80
65072;DHT22;51663;52.310;17.016;2024-03-06T09:45:27;27.20;29.00
65072;DHT22;51663;52.310;17.016;2024-03-06T09:48:30;27.30;28.90
65072;DHT22;51663;52.310;17.016;2024-03-06T09:51:33;27.00;29.10
65072;DHT22;51663;52.310;17.016;2024-03-06T09:54:37;27.10;29.30
65072;DHT22;51663;52.310;17.016;2024-03-06T09:57:43;26.60;29.80
65072;DHT22;51663;52.310;17.016;2024-03-06T10:00:46;26.70;29.50
65072;DHT22;51663;52.310;17.016;2024-03-06T10:03:50;26.60;29.60
65072;DHT22;51663;52.310;17.016;2024-03-06T10:06:54;26.80;29.50
65072;DHT22;51663;52.310;17.016;2024-03-06T10:09:57;26.70;29.70
65072;DHT22;51663;52.310;17.016;2024-03-06T10:12:59;27.60;29.30
65072;DHT22;51663;52.310;17.016;2024-03-06T10:16:04;27.40;29.30
65072;DHT22;51663;52.310;17.016;2024-03-06T10:19:20;27.70;29.20
65072;DHT22;51663;52.310;17.016;2024-03-06T10:22:22;28.80;28.10
65072;DHT22;51663;52.310;17.016;2024-03-06T10:25:27;28.90;28.10
65072;DHT22;51663;52.310;17.016;2024-03-06T10:28:30;29.40;27.50
65072;DHT22;51663;52.310;17.016;2024-03-06T10:31:33;29.10;27.50
65072;DHT22;51663;52.310;17.016;2024-03-06T10:34:37;29.30;27.90
65072;DHT22;51663;52.310;17.016;2024-03-06T10:37:40;29.30;28.20
65072;DHT22;51663;52.310;17.016;2024-03-06T10:40:44;29.50;28.00
65072;DHT22;51663;52.310;17.016;2024-03-06T10:43:47;28.70;28.50
65072;DHT22;51663;52.310;17.016;2024-03-06T10:46:59;27.90;29.20
65072;DHT22;51663;52.310;17.016;2024-03-06T10:50:02;28.30;29.70
65072;DHT22;51663;52.310;17.016;2024-03-06T10:53:10;27.40;30.50
65072;DHT22;51663;52.310;17.016;2024-03-06T10:56:16;27.60;30.60
65072;DHT22;51663;52.310;17.016;2024-03-06T10:59:20;27.50;30.70
65072;DHT22;51663;52.310;17.016;2024-03-06T11:02:23;27.10;31.40
65072;DHT22;51663;52.310;17.016;2024-03-06T11:05:26;27.40;31.10
65072;DHT22;51663;52.310;17.016;2024-03-06T11:08:28;26.80;31.50
65072;DHT22;51663;52.310;17.016;2024-03-06T11:11:31;26.40;32.30
65072;DHT22;51663;52.310;17.016;2024-03-06T11:14:38;26.30;32.40
65072;DHT22;51663;52.310;17.016;2024-03-06T11:17:43;25.60;33.70
65072;DHT22;51663;52.310;17.016;2024-03-06T11:20:45;25.80;34.40
65072;DHT22;51663;52.310;17.016;2024-03-06T11:24:21;26.10;33.90
65072;DHT22;51663;52.310;17.016;2024-03-06T11:27:23;25.80;34.20
65072;DHT22;51663;52.310;17.016;2024-03-06T11:30:26;26.20;34.00
65072;DHT22;51663;52.310;17.016;2024-03-06T11:36:46;27.30;32.70
65072;DHT22;51663;52.310;17.016;2024-03-06T11:39:48;27.20;32.60
65072;DHT22;51663;52.310;17.016;2024-03-06T11:42:52;27.90;31.60
65072;DHT22;51663;52.310;17.016;2024-03-06T11:46:07;27.60;31.90
65072;DHT22;51663;52.310;17.016;2024-03-06T11:52:26;27.70;31.80
65072;DHT22;51663;52.310;17.016;2024-03-06T11:55:30;27.20;32.10
65072;DHT22;51663;52.310;17.016;2024-03-06T11:58:32;27.70;32.10
65072;DHT22;51663;52.310;17.016;2024-03-06T12:01:35;26.40;32.50
65072;DHT22;51663;52.310;17.016;2024-03-06T12:04:38;26.90;32.80
65072;DHT22;51663;52.310;17.016;2024-03-06T12:07:49;26.80;33.40
65072;DHT22;51663;52.310;17.016;2024-03-06T12:10:52;26.90;33.10
65072;DHT22;51663;52.310;17.016;2024-03-06T12:13:57;26.10;33.70
65072;DHT22;51663;52.310;17.016;2024-03-06T12:17:01;25.10;35.50
65072;DHT22;51663;52.310;17.016;2024-03-06T12:20:10;25.50;35.50
65072;DHT22;51663;52.310;17.016;2024-03-06T12:23:23;24.70;36.00
65072;DHT22;51663;52.310;17.016;2024-03-06T12:26:28;25.10;36.20
65072;DHT22;51663;52.310;17.016;2024-03-06T12:29:31;24.80;36.10
65072;DHT22;51663;52.310;17.016;2024-03-06T12:32:35;24.60;37.00
65072;DHT22;51663;52.310;17.016;2024-03-06T12:35:37;25.30;36.00
65072;DHT22;51663;52.310;17.016;2024-03-06T12:38:40;26.10;34.90
65072;DHT22;51663;52.310;17.016;2024-03-06T12:41:42;25.40;35.50
65072;DHT22;51663;52.310;17.016;2024-03-06T12:44:45;25.90;35.00
65072;DHT22;51663;52.310;17.016;2024-03-06T12:47:47;24.50;36.80
65072;DHT22;51663;52.310;17.016;2024-03-06T12:50:51;24.60;37.30
65072;DHT22;51663;52.310;17.016;2024-03-06T12:53:54;24.30;37.60
65072;DHT22;51663;52.310;17.016;2024-03-06T12:56:56;23.70;38.80
65072;DHT22;51663;52.310;17.016;2024-03-06T12:59:59;24.30;38.30
65072;DHT22;51663;52.310;17.016;2024-03-06T13:03:02;25.20;36.80
65072;DHT22;51663;52.310;17.016;2024-03-06T13:06:05;25.90;35.70
65072;DHT22;51663;52.310;17.016;2024-03-06T13:09:08;25.50;36.20
65072;DHT22;51663;52.310;17.016;2024-03-06T13:12:11;25.70;35.90
65072;DHT22;51663;52.310;17.016;2024-03-06T13:15:14;25.80;36.00
65072;DHT22;51663;52.310;17.016;2024-03-06T13:18:16;24.90;36.80
65072;DHT22;51663;52.310;17.016;2024-03-06T13:21:20;26.10;36.10
65072;DHT22;51663;52.310;17.016;2024-03-06T13:24:22;27.00;34.90
65072;DHT22;51663;52.310;17.016;2024-03-06T13:27:25;26.20;34.80
65072;DHT22;51663;52.310;17.016;2024-03-06T13:30:27;24.70;37.60
65072;DHT22;51663;52.310;17.016;2024-03-06T13:33:29;24.90;37.50
65072;DHT22;51663;52.310;17.016;2024-03-06T13:36:31;24.90;38.00
65072;DHT22;51663;52.310;17.016;2024-03-06T13:39:34;25.00;38.10
65072;DHT22;51663;52.310;17.016;2024-03-06T13:42:37;25.00;37.90
65072;DHT22;51663;52.310;17.016;2024-03-06T13:45:49;24.80;38.30
65072;DHT22;51663;52.310;17.016;2024-03-06T13:48:51;24.80;37.90
65072;DHT22;51663;52.310;17.016;2024-03-06T13:51:54;25.10;37.30
65072;DHT22;51663;52.310;17.016;2024-03-06T13:54:56;25.30;38.00
65072;DHT22;51663;52.310;17.016;2024-03-06T13:57:59;25.10;37.30
65072;DHT22;51663;52.310;17.016;2024-03-06T14:01:05;25.50;37.70
65072;DHT22;51663;52.310;17.016;2024-03-06T14:04:08;25.40;37.50
65072;DHT22;51663;52.310;17.016;2024-03-06T14:07:10;25.30;37.30
65072;DHT22;51663;52.310;17.016;2024-03-06T14:10:12;25.40;37.70
65072;DHT22;51663;52.310;17.016;2024-03-06T14:13:15;25.00;38.00
65072;DHT22;51663;52.310;17.016;2024-03-06T14:16:17;24.00;40.00
65072;DHT22;51663;52.310;17.016;2024-03-06T14:19:19;23.50;40.90
65072;DHT22;51663;52.310;17.016;2024-03-06T14:22:23;24.60;39.50
65072;DHT22;51663;52.310;17.016;2024-03-06T14:25:26;25.80;37.10
65072;DHT22;51663;52.310;17.016;2024-03-06T14:28:28;26.30;36.20
65072;DHT22;51663;52.310;17.016;2024-03-06T14:31:30;26.60;35.70
65072;DHT22;51663;52.310;17.016;2024-03-06T14:34:33;27.20;34.60
65072;DHT22;51663;52.310;17.016;2024-03-06T14:37:35;27.30;34.50
65072;DHT22;51663;52.310;17.016;2024-03-06T14:40:38;26.30;35.00
65072;DHT22;51663;52.310;17.016;2024-03-06T14:43:40;26.80;34.60
65072;DHT22;51663;52.310;17.016;2024-03-06T14:46:42;26.90;34.30
65072;DHT22;51663;52.310;17.016;2024-03-06T14:49:45;27.00;34.50
65072;DHT22;51663;52.310;17.016;2024-03-06T14:52:48;26.20;34.80
65072;DHT22;51663;52.310;17.016;2024-03-06T14:55:50;25.70;36.00
65072;DHT22;51663;52.310;17.016;2024-03-06T14:58:53;26.60;35.00
65072;DHT22;51663;52.310;17.016;2024-03-06T15:01:55;25.60;35.60
65072;DHT22;51663;52.310;17.016;2024-03-06T15:04:58;26.10;35.40
65072;DHT22;51663;52.310;17.016;2024-03-06T15:08:00;25.60;35.70
65072;DHT22;51663;52.310;17.016;2024-03-06T15:11:02;26.20;35.50
65072;DHT22;51663;52.310;17.016;2024-03-06T15:14:05;27.20;34.00
65072;DHT22;51663;52.310;17.016;2024-03-06T15:17:10;27.30;33.50
65072;DHT22;51663;52.310;17.016;2024-03-06T15:20:12;27.90;32.50
65072;DHT22;51663;52.310;17.016;2024-03-06T15:23:15;28.20;32.00
65072;DHT22;51663;52.310;17.016;2024-03-06T15:26:17;28.70;31.70
65072;DHT22;51663;52.310;17.016;2024-03-06T15:29:20;28.50;31.90
65072;DHT22;51663;52.310;17.016;2024-03-06T15:32:22;28.70;31.30
65072;DHT22;51663;52.310;17.016;2024-03-06T15:35:25;28.90;31.10
65072;DHT22;51663;52.310;17.016;2024-03-06T15:38:27;29.20;30.90
65072;DHT22;51663;52.310;17.016;2024-03-06T15:41:29;28.90;31.00
65072;DHT22;51663;52.310;17.016;2024-03-06T15:44:33;28.70;31.10
65072;DHT22;51663;52.310;17.016;2024-03-06T15:47:35;28.80;31.30
65072;DHT22;51663;52.310;17.016;2024-03-06T15:50:45;29.20;30.80
65072;DHT22;51663;52.310;17.016;2024-03-06T15:53:48;29.40;30.50
65072;DHT22;51663;52.310;17.016;2024-03-06T15:56:50;29.60;30.10
65072;DHT22;51663;52.310;17.016;2024-03-06T15:59:53;29.10;30.50
65072;DHT22;51663;52.310;17.016;2024-03-06T16:02:56;29.30;30.30
65072;DHT22;51663;52.310;17.016;2024-03-06T16:06:00;28.80;30.60
65072;DHT22;51663;52.310;17.016;2024-03-06T16:09:16;29.10;30.30
65072;DHT22;51663;52.310;17.016;2024-03-06T16:12:19;29.20;30.20
65072;DHT22;51663;52.310;17.016;2024-03-06T16:15:21;29.10;30.10
65072;DHT22;51663;52.310;17.016;2024-03-06T16:18:23;29.40;30.20
65072;DHT22;51663;52.310;17.016;2024-03-06T16:21:26;29.00;30.30
65072;DHT22;51663;52.310;17.016;2024-03-06T16:24:29;28.90;30.20
65072;DHT22;51663;52.310;17.016;2024-03-06T16:27:32;28.30;31.10
65072;DHT22;51663;52.310;17.016;2024-03-06T16:30:34;28.70;30.50
65072;DHT22;51663;52.310;17.016;2024-03-06T16:33:36;28.20;31.20
65072;DHT22;51663;52.310;17.016;2024-03-06T16:36:39;28.90;30.50
65072;DHT22;51663;52.310;17.016;2024-03-06T16:39:41;29.00;30.20
65072;DHT22;51663;52.310;17.016;2024-03-06T16:42:43;28.50;30.70
65072;DHT22;51663;52.310;17.016;2024-03-06T16:45:45;28.70;30.50
65072;DHT22;51663;52.310;17.016;2024-03-06T16:48:48;27.10;32.10
65072;DHT22;51663;52.310;17.016;2024-03-06T16:51:51;27.50;32.00
65072;DHT22;51663;52.310;17.016;2024-03-06T16:54:54;27.70;31.50
65072;DHT22;51663;52.310;17.016;2024-03-06T16:57:57;28.20;31.10
65072;DHT22;51663;52.310;17.016;2024-03-06T17:00:59;28.00;31.10
65072;DHT22;51663;52.310;17.016;2024-03-06T17:04:02;28.20;30.70
65072;DHT22;51663;52.310;17.016;2024-03-06T17:07:04;28.40;30.60
65072;DHT22;51663;52.310;17.016;2024-03-06T17:10:11;28.80;30.10
65072;DHT22;51663;52.310;17.016;2024-03-06T17:13:15;28.80;30.00
65072;DHT22;51663;52.310;17.016;2024-03-06T17:16:17;28.80;30.00
65072;DHT22;51663;52.310;17.016;2024-03-06T17:19:20;28.50;29.90
65072;DHT22;51663;52.310;17.016;2024-03-06T17:22:22;28.60;29.90
65072;DHT22;51663;52.310;17.016;2024-03-06T17:25:24;28.50;29.80
65072;DHT22;51663;52.310;17.016;2024-03-06T17:28:26;28.50;29.80
65072;DHT22;51663;52.310;17.016;2024-03-06T17:31:29;28.60;29.90
65072;DHT22;51663;52.310;17.016;2024-03-06T17:34:31;28.60;29.80
65072;DHT22;51663;52.310;17.016;2024-03-06T17:37:34;28.80;29.60
65072;DHT22;51663;52.310;17.016;2024-03-06T17:40:36;28.90;29.30
65072;DHT22;51663;52.310;17.016;2024-03-06T17:43:39;28.10;29.60
65072;DHT22;51663;52.310;17.016;2024-03-06T17:46:42;28.00;30.10
65072;DHT22;51663;52.310;17.016;2024-03-06T17:49:45;28.30;29.90
65072;DHT22;51663;52.310;17.016;2024-03-06T17:52:48;28.30;29.50
65072;DHT22;51663;52.310;17.016;2024-03-06T17:55:50;28.40;29.50
65072;DHT22;51663;52.310;17.016;2024-03-06T17:58:53;28.50;29.20
65072;DHT22;51663;52.310;17.016;2024-03-06T18:01:56;28.20;29.40
65072;DHT22;51663;52.310;17.016;2024-03-06T18:04:59;28.60;29.40
65072;DHT22;51663;52.310;17.016;2024-03-06T18:08:02;28.80;28.80
65072;DHT22;51663;52.310;17.016;2024-03-06T18:11:04;28.90;28.90
65072;DHT22;51663;52.310;17.016;2024-03-06T18:14:07;28.80;29.60
65072;DHT22;51663;52.310;17.016;2024-03-06T18:17:10;28.30;29.30
65072;DHT22;51663;52.310;17.016;2024-03-06T18:20:13;27.30;29.50
65072;DHT22;51663;52.310;17.016;2024-03-06T18:23:15;27.70;30.10
65072;DHT22;51663;52.310;17.016;2024-03-06T18:26:20;27.30;30.00
65072;DHT22;51663;52.310;17.016;2024-03-06T18:29:23;26.90;30.20
65072;DHT22;51663;52.310;17.016;2024-03-06T18:32:25;26.60;31.10
65072;DHT22;51663;52.310;17.016;2024-03-06T18:35:28;26.90;30.50
65072;DHT22;51663;52.310;17.016;2024-03-06T18:38:34;27.00;30.30
65072;DHT22;51663;52.310;17.016;2024-03-06T18:41:36;27.20;29.80
65072;DHT22;51663;52.310;17.016;2024-03-06T18:44:38;27.30;30.00
65072;DHT22;51663;52.310;17.016;2024-03-06T18:47:41;27.40;29.70
65072;DHT22;51663;52.310;17.016;2024-03-06T18:50:45;27.60;29.60
65072;DHT22;51663;52.310;17.016;2024-03-06T18:53:48;27.80;29.60
65072;DHT22;51663;52.310;17.016;2024-03-06T18:56:52;27.80;29.40
65072;DHT22;51663;52.310;17.016;2024-03-06T18:59:55;26.90;30.20
65072;DHT22;51663;52.310;17.016;2024-03-06T19:02:58;26.00;31.50
65072;DHT22;51663;52.310;17.016;2024-03-06T19:06:00;26.40;31.30
65072;DHT22;51663;52.310;17.016;2024-03-06T19:09:02;25.80;32.10